Xing Hao Hai — VRPF5 — position and weather

sailwx.info

Track history (hours):
 
Tides and Currents Weather Stations Pressure Air Temp Water Temp Dewpoint Dewpoint Depression Visibility Wind Speed Wind Dir Waves Ship Positions

Xing Hao Hai

Last reported at 2018-Jul-21 00:13 UTC. Time now 2018-Jul-23 11:22 UTC.
Position N 23°18' E 117°42'.

Length 200 m; draft 12 m.

Type: Cargo ship. MMSI: 477730800.

Date/timePositionNaut miles runAvg speedWind from/ knotsBaromVisibWave heightAir tempDewpointWater temp
2018-Jul-21 00:13N 23°18' E 117°42'413.5
2018-Jul-20 23:55N 23°21' E 117°45'613.5
2018-Jul-20 23:30N 23°25' E 117°48'713.5
2018-Jul-20 23:00N 23°31' E 117°53'713.0
2018-Jul-20 22:27N 23°36' E 117°58'713.0
2018-Jul-20 21:56N 23°41' E 118°04'612.8
2018-Jul-20 21:28N 23°45' E 118°08'812.9
2018-Jul-20 20:52N 23°50' E 118°15'512.8
2018-Jul-20 20:28N 23°53' E 118°19'1612.6
2018-Jul-20 19:10N 24°04' E 118°33'212.5
2018-Jul-20 19:00N 24°05' E 118°34'612.4
2018-Jul-20 18:30N 24°09' E 118°40'612.5
2018-Jul-20 18:00N 24°13' E 118°45'912.3
2018-Jul-20 17:18N 24°19' E 118°52'45011.1
2018-Jul-19 00:46N 30°58' E 122°46'413.8
2018-Jul-19 00:27N 31°02' E 122°44'812.8
2018-Jul-18 23:48N 31°06' E 122°35'811.7
2018-Jul-18 23:07N 31°06' E 122°26'212.7
2018-Jul-18 22:59N 31°06' E 122°24'813.1
2018-Jul-18 22:24N 31°08' E 122°15'613.5
2018-Jul-18 21:57N 31°12' E 122°09'512.2
2018-Jul-18 21:30N 31°14' E 122°04'611.9
2018-Jul-18 21:01N 31°15' E 121°57'811.4
2018-Jul-18 20:17N 31°18' E 121°48'  
2018-Jul-15 04:03N 31°18' E 121°46'112.6
2018-Jul-15 04:00N 31°18' E 121°46'810.5
2018-Jul-15 03:16N 31°16' E 121°55'310.6
2018-Jul-15 02:58N 31°15' E 121°59'1210.7
2018-Jul-15 01:53N 31°11' E 122°11'511.6
2018-Jul-15 01:24N 31°07' E 122°16'613.1
2018-Jul-15 00:59N 31°06' E 122°23'  
Track history (hours):
 
Tides and Currents Weather Stations Pressure Air Temp Water Temp Dewpoint Dewpoint Depression Visibility Wind Speed Wind Dir Waves Ship Positions

Xing Hao Hai

Last reported at 2018-Jul-21 00:13 UTC. Time now 2018-Jul-23 11:22 UTC.
Position N 23°18' E 117°42'.

Length 200 m; draft 12 m.

Type: Cargo ship. MMSI: 477730800.

Date/timePositionNaut miles runAvg speedWind from/ knotsBaromVisibWave heightAir tempDewpointWater temp
2018-Jul-21 00:13N 23°18' E 117°42'413.5
2018-Jul-20 23:55N 23°21' E 117°45'613.5
2018-Jul-20 23:30N 23°25' E 117°48'713.5
2018-Jul-20 23:00N 23°31' E 117°53'713.0
2018-Jul-20 22:27N 23°36' E 117°58'713.0
2018-Jul-20 21:56N 23°41' E 118°04'612.8
2018-Jul-20 21:28N 23°45' E 118°08'812.9
2018-Jul-20 20:52N 23°50' E 118°15'512.8
2018-Jul-20 20:28N 23°53' E 118°19'1612.6
2018-Jul-20 19:10N 24°04' E 118°33'212.5
2018-Jul-20 19:00N 24°05' E 118°34'612.4
2018-Jul-20 18:30N 24°09' E 118°40'612.5
2018-Jul-20 18:00N 24°13' E 118°45'912.3
2018-Jul-20 17:18N 24°19' E 118°52'45011.1
2018-Jul-19 00:46N 30°58' E 122°46'413.8
2018-Jul-19 00:27N 31°02' E 122°44'812.8
2018-Jul-18 23:48N 31°06' E 122°35'811.7
2018-Jul-18 23:07N 31°06' E 122°26'212.7
2018-Jul-18 22:59N 31°06' E 122°24'813.1
2018-Jul-18 22:24N 31°08' E 122°15'613.5
2018-Jul-18 21:57N 31°12' E 122°09'512.2
2018-Jul-18 21:30N 31°14' E 122°04'611.9
2018-Jul-18 21:01N 31°15' E 121°57'811.4
2018-Jul-18 20:17N 31°18' E 121°48'  
2018-Jul-15 04:03N 31°18' E 121°46'112.6
2018-Jul-15 04:00N 31°18' E 121°46'810.5
2018-Jul-15 03:16N 31°16' E 121°55'310.6
2018-Jul-15 02:58N 31°15' E 121°59'1210.7
2018-Jul-15 01:53N 31°11' E 122°11'511.6
2018-Jul-15 01:24N 31°07' E 122°16'613.1
2018-Jul-15 00:59N 31°06' E 122°23'  

Dump ship's entire track history